createdAt,value
2022-11-13T00:00:04.726Z,8.73
2022-11-13T00:02:50.758Z,6.50
2022-11-13T00:05:36.556Z,8.00
2022-11-13T00:08:22.273Z,9.57
2022-11-13T00:11:11.534Z,8.77
2022-11-13T00:13:57.576Z,10.13
2022-11-13T00:16:43.207Z,9.27
2022-11-13T00:19:29.026Z,9.80
2022-11-13T00:22:14.777Z,9.05
2022-11-13T00:25:00.382Z,11.18
2022-11-13T00:27:48.130Z,10.20
2022-11-13T00:30:34.088Z,9.18
2022-11-13T00:33:37.951Z,8.80
2022-11-13T00:36:27.512Z,9.65
2022-11-13T00:39:13.364Z,8.23
2022-11-13T00:41:59.191Z,9.48
2022-11-13T00:44:46.253Z,7.70
2022-11-13T00:47:32.314Z,8.02
2022-11-13T00:50:18.289Z,11.60
2022-11-13T00:53:04.107Z,10.38
2022-11-13T00:55:50.638Z,9.18
2022-11-13T00:58:36.396Z,8.90
2022-11-13T01:01:23.753Z,7.95
2022-11-13T01:04:09.715Z,10.82
2022-11-13T01:06:55.436Z,7.45
2022-11-13T01:09:41.423Z,8.93
2022-11-13T01:12:27.242Z,7.80
2022-11-13T01:15:13.065Z,7.65
2022-11-13T01:18:00.318Z,9.07
2022-11-13T01:20:46.173Z,9.63
2022-11-13T01:23:31.994Z,9.73
2022-11-13T01:26:20.484Z,9.18
2022-11-13T01:29:06.508Z,9.50
2022-11-13T01:31:52.239Z,9.32
2022-11-13T01:34:39.580Z,10.43
2022-11-13T01:37:25.510Z,9.23
2022-11-13T01:40:13.618Z,10.82
2022-11-13T01:42:59.395Z,11.95
2022-11-13T01:46:24.377Z,10.80
2022-11-13T01:49:24.976Z,11.55
2022-11-13T01:52:15.578Z,10.63
2022-11-13T01:55:04.550Z,11.20
2022-11-13T01:57:50.884Z,13.20
2022-11-13T02:00:36.847Z,11.60
2022-11-13T02:03:22.541Z,10.43
2022-11-13T02:06:08.961Z,8.52
2022-11-13T02:08:56.731Z,10.73
2022-11-13T02:11:42.596Z,10.45
2022-11-13T02:14:29.876Z,12.65
2022-11-13T02:17:18.839Z,11.65
2022-11-13T02:20:07.716Z,11.07
2022-11-13T02:23:02.113Z,9.47
2022-11-13T02:25:52.541Z,11.98
2022-11-13T02:28:38.571Z,9.25
2022-11-13T02:31:24.606Z,10.27
2022-11-13T02:34:10.661Z,8.80
2022-11-13T02:36:56.564Z,10.60
2022-11-13T02:39:42.446Z,10.23
2022-11-13T02:42:29.583Z,11.45
2022-11-13T02:45:16.031Z,11.32
2022-11-13T02:48:02.060Z,8.15
2022-11-13T02:50:47.736Z,9.82
2022-11-13T02:53:33.643Z,9.45
2022-11-13T02:56:19.306Z,10.68
2022-11-13T02:59:06.718Z,9.85
2022-11-13T03:01:52.730Z,9.07
2022-11-13T03:05:05.238Z,12.48
2022-11-13T03:07:44.262Z,12.93
2022-11-13T03:10:30.105Z,11.38
2022-11-13T03:13:15.872Z,11.52
2022-11-13T03:16:09.422Z,11.90
2022-11-13T03:18:55.879Z,10.48
2022-11-13T03:21:42.007Z,11.15
2022-11-13T03:24:27.736Z,15.77
2022-11-13T03:27:14.197Z,9.45
2022-11-13T03:30:00.107Z,12.55
2022-11-13T03:32:47.765Z,15.40
2022-11-13T03:35:40.814Z,14.02
2022-11-13T03:38:28.935Z,15.02
2022-11-13T03:41:15.182Z,11.35
2022-11-13T03:44:01.058Z,11.10
2022-11-13T03:46:47.274Z,12.05
2022-11-13T03:49:34.417Z,10.50
2022-11-13T03:52:20.481Z,11.75
2022-11-13T03:55:07.663Z,12.43
2022-11-13T03:57:53.529Z,11.50
2022-11-13T04:00:41.443Z,12.18
2022-11-13T04:03:27.098Z,13.23
2022-11-13T04:06:14.584Z,11.30
2022-11-13T04:09:01.318Z,11.07
2022-11-13T04:11:47.387Z,13.43
2022-11-13T04:14:33.120Z,12.25
2022-11-13T04:17:18.780Z,12.02
2022-11-13T04:20:05.241Z,14.23
2022-11-13T04:22:52.788Z,11.07
2022-11-13T04:25:38.785Z,12.55
2022-11-13T04:28:24.529Z,12.45
2022-11-13T04:31:10.536Z,11.95
2022-11-13T04:33:56.226Z,16.02
2022-11-13T04:36:42.198Z,10.75
2022-11-13T04:39:30.501Z,12.68
2022-11-13T04:42:16.348Z,14.05
2022-11-13T04:45:02.377Z,13.10
2022-11-13T04:47:48.220Z,13.30
2022-11-13T04:50:33.939Z,12.68
2022-11-13T04:53:19.732Z,10.25
2022-11-13T04:56:07.695Z,12.02
2022-11-13T04:58:53.737Z,11.50
2022-11-13T05:01:39.705Z,11.45
2022-11-13T05:04:25.608Z,11.90
2022-11-13T05:07:12.421Z,12.30
2022-11-13T05:09:58.837Z,12.95
2022-11-13T05:12:46.042Z,10.90
2022-11-13T05:15:32.052Z,11.18
2022-11-13T05:18:17.994Z,10.20
2022-11-13T05:21:04.553Z,9.77
2022-11-13T05:23:50.284Z,11.65
2022-11-13T05:26:38.026Z,10.02
2022-11-13T05:29:25.078Z,10.80
2022-11-13T05:32:11.745Z,10.02
2022-11-13T05:34:58.315Z,13.45
2022-11-13T05:37:44.326Z,9.35
2022-11-13T05:40:30.144Z,10.32
2022-11-13T05:43:15.873Z,13.05
2022-11-13T05:46:05.552Z,11.65
2022-11-13T05:48:54.280Z,11.93
2022-11-13T05:51:40.131Z,14.43
2022-11-13T05:54:25.741Z,12.35
2022-11-13T05:57:11.313Z,11.88
2022-11-13T05:59:57.313Z,11.93
2022-11-13T06:02:44.470Z,11.20
2022-11-13T06:05:30.622Z,13.35
2022-11-13T06:08:16.412Z,11.98
2022-11-13T06:11:03.964Z,12.48
2022-11-13T06:13:51.067Z,14.73
2022-11-13T06:16:38.841Z,10.25
2022-11-13T06:19:26.711Z,13.40
2022-11-13T06:22:12.390Z,12.23
2022-11-13T06:24:58.422Z,13.10
2022-11-13T06:27:44.298Z,13.57
2022-11-13T06:30:29.978Z,11.18
2022-11-13T06:33:15.885Z,9.20
2022-11-13T06:36:04.284Z,10.20
2022-11-13T06:38:50.770Z,10.67
2022-11-13T06:41:38.610Z,12.63
2022-11-13T06:44:24.267Z,13.00
2022-11-13T06:47:10.029Z,12.73
2022-11-13T06:49:55.792Z,12.43
2022-11-13T06:52:43.094Z,13.73
2022-11-13T06:55:29.728Z,12.10
2022-11-13T06:58:16.265Z,16.08
2022-11-13T07:01:06.594Z,11.18
2022-11-13T07:03:52.322Z,13.90
2022-11-13T07:06:40.484Z,11.13
2022-11-13T07:09:27.806Z,10.75
2022-11-13T07:12:13.919Z,12.18
2022-11-13T07:14:59.984Z,11.48
2022-11-13T07:17:45.589Z,12.85
2022-11-13T07:20:32.207Z,12.25
2022-11-13T07:23:18.104Z,15.38
2022-11-13T07:26:05.451Z,13.50
2022-11-13T07:28:51.513Z,16.20
2022-11-13T07:31:37.704Z,11.55
2022-11-13T07:34:23.306Z,9.82
2022-11-13T07:37:09.119Z,10.75
2022-11-13T07:39:54.836Z,10.75
2022-11-13T07:42:42.005Z,14.05
2022-11-13T07:45:28.992Z,12.57
2022-11-13T07:48:14.924Z,11.25
2022-11-13T07:51:01.611Z,11.27
2022-11-13T07:53:47.792Z,11.02
2022-11-13T07:56:33.515Z,11.32
2022-11-13T07:59:20.702Z,13.18
2022-11-13T08:02:07.152Z,12.98
2022-11-13T08:04:53.111Z,13.48
2022-11-13T08:07:39.071Z,14.02
2022-11-13T08:10:24.981Z,12.77
2022-11-13T08:13:11.079Z,13.70
2022-11-13T08:16:01.162Z,11.27
2022-11-13T08:18:47.833Z,13.68
2022-11-13T08:21:35.690Z,16.55
2022-11-13T08:24:21.748Z,10.32
2022-11-13T08:27:07.773Z,13.43
2022-11-13T08:29:53.766Z,11.32
2022-11-13T08:32:41.358Z,11.00
2022-11-13T08:35:29.622Z,12.98
2022-11-13T08:38:15.734Z,14.05
2022-11-13T08:41:08.365Z,11.43
2022-11-13T08:43:54.744Z,13.30
2022-11-13T08:46:40.724Z,12.88
2022-11-13T08:49:28.055Z,14.27
2022-11-13T08:52:15.403Z,12.70
2022-11-13T08:55:01.298Z,15.32
2022-11-13T08:57:47.109Z,9.73
2022-11-13T09:00:33.171Z,11.55
2022-11-13T09:03:19.423Z,11.90
2022-11-13T09:06:08.212Z,11.75
2022-11-13T09:08:53.901Z,11.70
2022-11-13T09:11:39.822Z,14.15
2022-11-13T09:14:26.011Z,10.82
2022-11-13T09:17:11.929Z,11.30
2022-11-13T09:20:03.547Z,13.73
2022-11-13T09:22:59.051Z,10.77
2022-11-13T09:25:45.234Z,11.85
2022-11-13T09:28:32.015Z,14.23
2022-11-13T09:31:18.131Z,13.32
2022-11-13T09:34:05.029Z,13.80
2022-11-13T09:36:50.840Z,12.20
2022-11-13T09:39:37.861Z,15.23
2022-11-13T09:42:26.825Z,10.80
2022-11-13T09:45:15.499Z,11.30
2022-11-13T09:48:12.808Z,12.23
2022-11-13T09:51:01.354Z,10.68
2022-11-13T09:53:50.707Z,15.27
2022-11-13T09:56:41.237Z,11.83
2022-11-13T09:59:32.386Z,12.45
2022-11-13T10:02:23.385Z,11.80
2022-11-13T10:05:15.229Z,12.95
2022-11-13T10:08:07.349Z,12.07
2022-11-13T10:11:02.913Z,12.43
2022-11-13T10:13:52.407Z,15.10
2022-11-13T10:16:42.422Z,11.55
2022-11-13T10:19:38.344Z,15.88
2022-11-13T10:22:33.910Z,12.68
2022-11-13T10:25:21.904Z,13.23
2022-11-13T10:28:35.422Z,15.43
2022-11-13T10:31:21.703Z,17.15
2022-11-13T10:34:08.118Z,14.73
2022-11-13T10:37:20.621Z,14.75
2022-11-13T10:40:07.826Z,13.77
2022-11-13T10:42:53.478Z,12.20
2022-11-13T10:45:40.747Z,14.65
2022-11-13T10:48:29.430Z,15.00
2022-11-13T10:51:25.054Z,11.33
2022-11-13T10:54:23.410Z,11.45
2022-11-13T10:57:23.306Z,15.40
2022-11-13T11:00:24.737Z,15.85
2022-11-13T11:03:15.757Z,15.82
2022-11-13T11:06:04.974Z,14.57
2022-11-13T11:08:50.955Z,18.75
2022-11-13T11:11:36.617Z,15.27
2022-11-13T11:14:26.119Z,16.33
2022-11-13T11:20:02.038Z,18.52
2022-11-13T11:22:53.206Z,14.60
2022-11-13T11:25:44.154Z,17.45
2022-11-13T11:28:35.158Z,14.65
2022-11-13T11:31:28.945Z,14.95
2022-11-13T11:34:20.640Z,16.60
2022-11-13T11:37:13.428Z,21.92
2022-11-13T11:40:04.722Z,18.58
2022-11-13T11:42:59.983Z,17.27
2022-11-13T11:45:47.044Z,17.35
2022-11-13T11:48:34.161Z,17.50
2022-11-13T11:51:26.115Z,16.33
2022-11-13T11:54:21.232Z,22.02
2022-11-13T11:57:18.454Z,17.23
2022-11-13T12:00:06.573Z,16.05
2022-11-13T12:03:21.431Z,15.48
2022-11-13T12:06:16.524Z,15.80
2022-11-13T12:09:10.464Z,16.67
2022-11-13T12:12:03.179Z,19.20
2022-11-13T12:15:01.855Z,14.68
2022-11-13T12:17:58.337Z,14.70
2022-11-13T12:20:50.891Z,16.20
2022-11-13T12:23:54.738Z,20.38
2022-11-13T12:26:47.507Z,19.98
2022-11-13T12:29:45.068Z,20.65
2022-11-13T12:32:54.158Z,21.08
2022-11-13T12:35:40.652Z,16.67
2022-11-13T12:38:37.113Z,19.00
2022-11-13T12:41:30.919Z,20.85
2022-11-13T12:44:23.392Z,15.18
2022-11-13T12:47:10.035Z,15.57
2022-11-13T12:50:03.744Z,18.35
2022-11-13T12:53:01.539Z,17.70
2022-11-13T12:55:56.665Z,16.70
2022-11-13T12:59:15.393Z,16.15
2022-11-13T13:02:17.630Z,17.70
2022-11-13T13:05:17.283Z,20.70
2022-11-13T13:08:45.205Z,13.93
2022-11-13T13:11:38.929Z,14.80
2022-11-13T13:14:49.030Z,14.88
2022-11-13T13:17:34.946Z,13.55
2022-11-13T13:20:35.091Z,15.40
2022-11-13T13:23:27.776Z,16.48
2022-11-13T13:26:19.649Z,14.30
2022-11-13T13:29:17.648Z,16.45
2022-11-13T13:32:20.649Z,14.60
2022-11-13T13:35:14.931Z,16.23
2022-11-13T13:38:13.573Z,16.77
2022-11-13T13:41:25.252Z,16.88
2022-11-13T13:44:41.210Z,14.93
2022-11-13T13:47:31.043Z,18.92
2022-11-13T13:50:20.710Z,16.38
2022-11-13T13:53:09.680Z,16.98
2022-11-13T13:55:56.878Z,17.23
2022-11-13T13:58:43.422Z,15.98
2022-11-13T14:01:30.913Z,24.00
2022-11-13T14:04:21.163Z,17.63
2022-11-13T14:07:21.130Z,19.50
2022-11-13T14:10:15.709Z,17.63
2022-11-13T14:13:02.743Z,14.80
2022-11-13T14:15:49.170Z,20.38
2022-11-13T14:18:35.812Z,18.02
2022-11-13T14:21:23.709Z,20.48
2022-11-13T14:24:16.399Z,16.40
2022-11-13T14:27:07.372Z,16.52
2022-11-13T14:29:55.939Z,16.42
2022-11-13T14:32:46.818Z,15.77
2022-11-13T14:35:33.339Z,15.68
2022-11-13T14:38:21.898Z,15.75
2022-11-13T14:41:17.227Z,13.90
2022-11-13T14:44:05.436Z,17.17
2022-11-13T14:47:00.629Z,18.10
2022-11-13T14:49:46.988Z,19.67
2022-11-13T14:52:32.612Z,16.67
2022-11-13T14:55:23.438Z,17.95
2022-11-13T14:58:13.040Z,15.50
2022-11-13T15:01:11.591Z,16.13
2022-11-13T15:03:57.561Z,18.63
2022-11-13T15:06:43.528Z,14.45
2022-11-13T15:09:31.181Z,18.02
2022-11-13T15:12:17.376Z,11.75
2022-11-13T15:15:03.345Z,13.20
2022-11-13T15:17:52.322Z,15.93
2022-11-13T15:20:38.426Z,13.87
2022-11-13T15:23:26.681Z,11.65
2022-11-13T15:26:13.407Z,17.23
2022-11-13T15:28:59.441Z,16.67
2022-11-13T15:31:47.275Z,15.75
2022-11-13T15:34:36.599Z,12.18
2022-11-13T15:37:23.302Z,15.18
2022-11-13T15:40:11.101Z,13.60
2022-11-13T15:42:56.986Z,15.63
2022-11-13T15:45:44.458Z,13.27
2022-11-13T15:48:30.736Z,13.90
2022-11-13T15:51:26.899Z,12.32
2022-11-13T15:54:17.895Z,13.20
2022-11-13T15:57:04.343Z,12.20
2022-11-13T15:59:50.284Z,14.07
2022-11-13T16:02:36.158Z,15.07
2022-11-13T16:05:22.422Z,14.18
2022-11-13T16:08:13.645Z,14.32
2022-11-13T16:10:59.495Z,18.17
2022-11-13T16:13:46.096Z,17.95
2022-11-13T16:16:36.242Z,14.75
2022-11-13T16:19:24.063Z,13.93
2022-11-13T16:22:17.989Z,22.15
2022-11-13T16:25:06.132Z,17.48
2022-11-13T16:27:52.272Z,17.13
2022-11-13T16:30:37.951Z,17.65
2022-11-13T16:33:24.197Z,12.52
2022-11-13T16:36:14.627Z,14.20
2022-11-13T16:39:00.880Z,16.75
2022-11-13T16:41:48.100Z,14.98
2022-11-13T16:44:34.391Z,15.02
2022-11-13T16:47:23.042Z,15.40
2022-11-13T16:50:14.372Z,16.13
2022-11-13T16:53:00.383Z,15.00
2022-11-13T16:55:46.579Z,17.60
2022-11-13T16:58:33.908Z,13.25
2022-11-13T17:01:20.451Z,16.90
2022-11-13T17:04:13.145Z,14.88
2022-11-13T17:06:59.235Z,14.68
2022-11-13T17:09:55.196Z,17.02
2022-11-13T17:12:50.752Z,15.00
2022-11-13T17:15:38.749Z,15.90
2022-11-13T17:18:24.687Z,12.10
2022-11-13T17:21:11.829Z,8.77
2022-11-13T17:23:58.598Z,9.90
2022-11-13T17:26:44.807Z,8.48
2022-11-13T17:29:30.703Z,8.45
2022-11-13T17:32:17.986Z,7.75
2022-11-13T17:35:04.210Z,7.13
2022-11-13T17:37:50.338Z,8.85
2022-11-13T17:40:36.905Z,11.20
2022-11-13T17:43:22.899Z,9.13
2022-11-13T17:46:11.262Z,10.18
2022-11-13T17:48:58.955Z,6.87
2022-11-13T17:51:45.601Z,10.65
2022-11-13T17:54:31.868Z,10.27
2022-11-13T17:57:19.567Z,9.55
2022-11-13T18:00:10.274Z,10.63
2022-11-13T18:02:56.756Z,7.95
2022-11-13T18:05:44.432Z,8.13
2022-11-13T18:08:30.148Z,10.23
2022-11-13T18:11:17.878Z,7.18
2022-11-13T18:14:03.962Z,8.77
2022-11-13T18:16:49.725Z,9.80
2022-11-13T18:19:35.389Z,8.07
2022-11-13T18:22:22.701Z,9.40
2022-11-13T18:25:09.521Z,11.40
2022-11-13T18:27:55.445Z,7.70
2022-11-13T18:30:41.464Z,12.85
2022-11-13T18:33:27.531Z,11.63
2022-11-13T18:36:13.935Z,11.45
2022-11-13T18:39:01.659Z,11.25
2022-11-13T18:41:47.969Z,11.70
2022-11-13T18:44:33.848Z,13.45
2022-11-13T18:47:19.633Z,10.35
2022-11-13T18:50:05.908Z,10.65
2022-11-13T18:52:51.805Z,13.15
2022-11-13T18:55:38.954Z,10.32
2022-11-13T18:58:25.000Z,10.50
2022-11-13T19:01:16.151Z,11.73
2022-11-13T19:04:23.666Z,14.65
2022-11-13T19:07:10.552Z,14.57
2022-11-13T19:09:56.324Z,11.63
2022-11-13T19:12:43.863Z,13.45
2022-11-13T19:15:29.756Z,11.23
2022-11-13T19:18:15.610Z,14.05
2022-11-13T19:21:05.506Z,13.15
2022-11-13T19:23:51.439Z,12.55
2022-11-13T19:26:37.102Z,9.68
2022-11-13T19:29:24.198Z,14.65
2022-11-13T19:32:10.447Z,11.90
2022-11-13T19:34:56.262Z,10.93
2022-11-13T19:37:42.285Z,15.73
2022-11-13T19:40:28.264Z,14.35
2022-11-13T19:43:14.310Z,12.75
2022-11-13T19:46:04.997Z,10.77
2022-11-13T19:48:52.415Z,8.93
2022-11-13T19:51:38.062Z,11.68
2022-11-13T19:54:23.773Z,11.57
2022-11-13T19:57:09.669Z,12.10
2022-11-13T19:59:55.341Z,9.68
2022-11-13T20:02:42.500Z,9.32
2022-11-13T20:05:28.692Z,9.98
2022-11-13T20:08:14.313Z,10.80
2022-11-13T20:11:02.021Z,9.98
2022-11-13T20:13:48.083Z,11.65
2022-11-13T20:16:33.864Z,9.23
2022-11-13T20:19:21.283Z,8.60
2022-11-13T20:22:07.499Z,9.52
2022-11-13T20:24:53.699Z,9.57
2022-11-13T20:27:41.908Z,8.65
2022-11-13T20:30:32.077Z,9.70
2022-11-13T20:33:22.404Z,9.27
2022-11-13T20:36:10.710Z,10.15
2022-11-13T20:38:57.235Z,8.52
2022-11-13T20:41:43.337Z,7.47
2022-11-13T20:44:28.964Z,10.00
2022-11-13T20:47:14.996Z,7.60
2022-11-13T20:50:00.825Z,10.02
2022-11-13T20:52:47.956Z,6.95
2022-11-13T20:55:33.956Z,8.88
2022-11-13T20:58:19.654Z,8.27
2022-11-13T21:01:07.126Z,8.40
2022-11-13T21:03:52.983Z,6.82
2022-11-13T21:06:38.790Z,8.85
2022-11-13T21:09:25.871Z,8.38
2022-11-13T21:12:11.943Z,8.35
2022-11-13T21:14:57.603Z,7.90
2022-11-13T21:17:43.299Z,8.50
2022-11-13T21:20:29.311Z,7.90
2022-11-13T21:23:15.165Z,6.88
2022-11-13T21:26:03.703Z,6.90
2022-11-13T21:28:49.528Z,8.30
2022-11-13T21:31:35.228Z,9.40
2022-11-13T21:34:21.672Z,7.55
2022-11-13T21:37:08.046Z,8.40
2022-11-13T21:39:53.728Z,7.85
2022-11-13T21:42:41.105Z,9.57
2022-11-13T21:45:27.194Z,8.00
2022-11-13T21:48:13.033Z,7.38
2022-11-13T21:50:58.940Z,8.23
2022-11-13T21:53:44.616Z,6.95
2022-11-13T21:56:32.275Z,8.32
2022-11-13T21:59:19.834Z,8.23
2022-11-13T22:02:05.940Z,7.32
2022-11-13T22:04:52.458Z,8.88
2022-11-13T22:07:38.274Z,8.57
2022-11-13T22:10:24.165Z,8.85
2022-11-13T22:13:10.474Z,8.85
2022-11-13T22:15:58.170Z,7.90
2022-11-13T22:18:44.301Z,8.70
2022-11-13T22:21:32.033Z,8.35
2022-11-13T22:24:17.945Z,10.10
2022-11-13T22:27:03.823Z,9.15
2022-11-13T22:29:50.285Z,10.52
2022-11-13T22:32:37.439Z,8.63
2022-11-13T22:35:23.382Z,9.55
2022-11-13T22:38:09.181Z,9.93
2022-11-13T22:40:55.045Z,8.23
2022-11-13T22:43:42.673Z,11.00
2022-11-13T22:46:30.554Z,9.13
2022-11-13T22:49:18.219Z,9.93
2022-11-13T22:52:04.185Z,8.57
2022-11-13T22:54:50.726Z,9.23
2022-11-13T22:57:36.521Z,8.40
2022-11-13T23:00:22.719Z,9.32
2022-11-13T23:03:08.803Z,11.90
2022-11-13T23:05:55.947Z,8.32
2022-11-13T23:08:43.285Z,7.88
2022-11-13T23:11:31.575Z,11.35
2022-11-13T23:14:17.593Z,8.65
2022-11-13T23:17:03.399Z,10.25
2022-11-13T23:19:49.309Z,12.20
2022-11-13T23:22:37.145Z,8.95
2022-11-13T23:25:23.236Z,10.60
2022-11-13T23:28:10.006Z,9.60
2022-11-13T23:30:56.100Z,11.80
2022-11-13T23:33:42.190Z,9.02
2022-11-13T23:36:28.529Z,10.07
2022-11-13T23:39:15.999Z,8.13
2022-11-13T23:42:02.016Z,9.50
2022-11-13T23:44:48.162Z,9.07
2022-11-13T23:47:33.965Z,8.25
2022-11-13T23:50:19.972Z,7.95
2022-11-13T23:53:06.028Z,8.15
2022-11-13T23:55:53.606Z,7.47
2022-11-13T23:58:39.544Z,9.30
